createdAt,value
2022-08-02T00:00:09.295Z,21.50
2022-08-02T00:05:14.690Z,21.50
2022-08-02T00:10:18.345Z,21.50
2022-08-02T00:15:22.089Z,21.40
2022-08-02T00:20:27.158Z,21.30
2022-08-02T00:25:30.830Z,21.30
2022-08-02T00:30:34.528Z,21.20
2022-08-02T00:35:40.451Z,21.20
2022-08-02T00:40:48.766Z,21.20
2022-08-02T00:45:58.943Z,21.00
2022-08-02T00:51:09.075Z,21.00
2022-08-02T00:56:12.791Z,21.00
2022-08-02T01:01:16.857Z,21.00
2022-08-02T01:06:22.063Z,21.00
2022-08-02T01:11:25.857Z,20.90
2022-08-02T01:16:32.814Z,20.90
2022-08-02T01:22:06.627Z,20.80
2022-08-02T01:27:26.950Z,20.80
2022-08-02T01:32:38.146Z,20.80
2022-08-02T01:37:49.535Z,20.80
2022-08-02T01:42:55.246Z,20.80
2022-08-02T01:48:01.826Z,20.70
2022-08-02T01:53:09.126Z,20.70
2022-08-02T01:58:15.902Z,20.60
2022-08-02T02:03:24.756Z,20.60
2022-08-02T02:08:32.221Z,20.50
2022-08-02T02:13:38.781Z,20.60
2022-08-02T02:18:46.046Z,20.50
2022-08-02T02:23:50.920Z,20.50
2022-08-02T02:28:57.455Z,20.40
2022-08-02T02:34:05.645Z,20.40
2022-08-02T02:39:13.762Z,20.40
2022-08-02T02:44:21.511Z,20.30
2022-08-02T02:49:27.934Z,20.30
2022-08-02T02:54:35.427Z,20.20
2022-08-02T02:59:42.927Z,20.20
2022-08-02T03:04:58.170Z,20.20
2022-08-02T03:10:02.230Z,20.20
2022-08-02T03:15:09.401Z,20.10
2022-08-02T03:20:16.083Z,20.00
2022-08-02T03:25:20.245Z,20.00
2022-08-02T03:30:26.930Z,20.00
2022-08-02T03:35:32.378Z,19.90
2022-08-02T03:40:37.620Z,19.90
2022-08-02T03:45:45.066Z,19.90
2022-08-02T03:50:53.735Z,19.90
2022-08-02T03:55:58.174Z,19.80
2022-08-02T04:01:02.322Z,19.80
2022-08-02T04:06:07.788Z,19.80
2022-08-02T04:11:28.661Z,19.70
2022-08-02T04:16:40.955Z,19.70
2022-08-02T04:21:52.219Z,19.70
2022-08-02T04:26:58.308Z,19.60
2022-08-02T04:32:05.973Z,19.60
2022-08-02T04:37:12.673Z,19.60
2022-08-02T04:42:22.928Z,19.60
2022-08-02T04:48:02.053Z,19.60
2022-08-02T04:52:51.754Z,19.60
2022-08-02T04:57:58.706Z,19.60
2022-08-02T05:03:02.633Z,19.60
2022-08-02T05:08:07.839Z,19.50
2022-08-02T05:13:11.519Z,19.50
2022-08-02T05:18:15.134Z,19.50
2022-08-02T05:23:20.658Z,19.60
2022-08-02T05:28:25.122Z,19.60
2022-08-02T05:33:28.514Z,19.60
2022-08-02T05:38:37.023Z,19.60
2022-08-02T05:43:41.278Z,19.60
2022-08-02T05:48:45.717Z,19.60
2022-08-02T05:53:55.384Z,19.60
2022-08-02T05:59:06.190Z,19.70
2022-08-02T06:04:12.376Z,19.70
2022-08-02T06:09:23.035Z,19.80
2022-08-02T06:14:32.968Z,19.80
2022-08-02T06:19:51.566Z,19.90
2022-08-02T06:24:58.182Z,20.00
2022-08-02T06:30:02.849Z,20.10
2022-08-02T06:35:07.431Z,20.20
2022-08-02T06:40:19.793Z,20.30
2022-08-02T06:45:23.499Z,20.50
2022-08-02T06:50:27.167Z,20.60
2022-08-02T06:55:32.312Z,20.70
2022-08-02T07:00:47.325Z,20.80
2022-08-02T07:05:50.927Z,21.00
2022-08-02T07:10:58.317Z,21.10
2022-08-02T07:16:03.368Z,21.20
2022-08-02T07:21:08.779Z,21.30
2022-08-02T07:26:13.904Z,21.40
2022-08-02T07:31:17.505Z,21.50
2022-08-02T07:36:22.766Z,21.60
2022-08-02T07:41:27.957Z,21.60
2022-08-02T07:46:33.374Z,21.80
2022-08-02T07:51:37.067Z,22.00
2022-08-02T07:56:42.034Z,22.20
2022-08-02T08:01:46.123Z,22.40
2022-08-02T08:06:52.144Z,22.50
2022-08-02T08:11:57.153Z,22.70
2022-08-02T08:17:00.923Z,23.00
2022-08-02T08:22:04.829Z,23.30
2022-08-02T08:27:14.664Z,23.50
2022-08-02T08:32:19.656Z,23.80
2022-08-02T08:37:23.582Z,23.90
2022-08-02T08:42:29.647Z,24.20
2022-08-02T08:47:37.230Z,24.50
2022-08-02T08:52:44.267Z,25.10
2022-08-02T08:57:49.299Z,25.80
2022-08-02T09:02:52.920Z,26.50
2022-08-02T09:07:56.605Z,27.20
2022-08-02T09:13:31.234Z,28.10
2022-08-02T09:18:39.811Z,28.80
2022-08-02T09:23:46.284Z,29.50
2022-08-02T09:28:53.301Z,30.30
2022-08-02T09:33:59.173Z,31.00
2022-08-02T09:39:05.524Z,31.00
2022-08-02T09:44:15.890Z,31.50
2022-08-02T09:49:20.788Z,32.00
2022-08-02T09:54:26.200Z,32.50
2022-08-02T09:59:31.740Z,33.00
2022-08-02T10:04:52.151Z,33.40
2022-08-02T10:09:58.156Z,34.10
2022-08-02T10:15:04.069Z,34.90
2022-08-02T10:20:08.548Z,35.60
2022-08-02T10:25:12.725Z,36.20
2022-08-02T10:30:18.113Z,36.80
2022-08-02T10:35:26.627Z,37.10
2022-08-02T10:40:48.097Z,37.40
2022-08-02T10:45:53.787Z,37.40
2022-08-02T10:50:57.900Z,37.60
2022-08-02T10:56:04.085Z,38.30
2022-08-02T11:01:38.841Z,38.70
2022-08-02T11:07:11.442Z,38.20
2022-08-02T11:12:17.495Z,38.20
2022-08-02T11:17:22.477Z,38.20
2022-08-02T11:22:26.294Z,38.90
2022-08-02T11:27:31.388Z,39.70
2022-08-02T11:32:36.447Z,40.30
2022-08-02T11:37:41.458Z,40.80
2022-08-02T11:42:49.643Z,41.00
2022-08-02T11:47:56.175Z,41.20
2022-08-02T11:52:59.858Z,41.80
2022-08-02T11:58:06.297Z,41.70
2022-08-02T12:03:13.576Z,41.70
2022-08-02T12:08:25.188Z,41.90
2022-08-02T12:13:29.335Z,42.10
2022-08-02T12:18:52.046Z,42.40
2022-08-02T12:23:59.929Z,42.60
2022-08-02T12:29:04.840Z,42.70
2022-08-02T12:34:18.422Z,42.70
2022-08-02T12:39:22.079Z,42.40
2022-08-02T12:44:25.835Z,41.60
2022-08-02T12:49:31.317Z,41.10
2022-08-02T12:54:41.613Z,41.30
2022-08-02T12:59:50.543Z,41.50
2022-08-02T13:04:55.739Z,41.70
2022-08-02T13:10:02.539Z,41.50
2022-08-02T13:15:12.390Z,41.90
2022-08-02T13:20:32.981Z,42.40
2022-08-02T13:25:36.714Z,42.70
2022-08-02T13:30:40.555Z,42.90
2022-08-02T13:35:46.666Z,42.30
2022-08-02T13:41:07.778Z,41.70
2022-08-02T13:46:11.503Z,41.10
2022-08-02T13:51:16.529Z,40.80
2022-08-02T13:56:20.205Z,40.70
2022-08-02T14:01:39.512Z,40.80
2022-08-02T14:06:44.687Z,40.70
2022-08-02T14:11:48.561Z,40.70
2022-08-02T14:16:52.330Z,40.80
2022-08-02T14:22:11.070Z,40.50
2022-08-02T14:27:16.008Z,39.90
2022-08-02T14:32:19.802Z,39.40
2022-08-02T14:37:33.303Z,39.30
2022-08-02T14:42:38.038Z,38.60
2022-08-02T14:47:41.744Z,37.50
2022-08-02T14:52:47.135Z,37.10
2022-08-02T14:57:53.530Z,36.60
2022-08-02T15:02:57.190Z,36.00
2022-08-02T15:08:02.322Z,35.60
2022-08-02T15:13:07.394Z,35.20
2022-08-02T15:18:11.301Z,34.80
2022-08-02T15:23:24.846Z,34.60
2022-08-02T15:28:38.714Z,34.30
2022-08-02T15:33:56.154Z,34.10
2022-08-02T15:45:24.113Z,34.20
2022-08-02T15:57:37.012Z,33.30
2022-08-02T16:02:40.969Z,33.40
2022-08-02T16:07:44.643Z,33.30
2022-08-02T16:12:49.482Z,33.20
2022-08-02T16:35:29.920Z,32.70
2022-08-02T16:40:34.457Z,32.80
2022-08-02T16:45:38.338Z,32.90
2022-08-02T16:50:46.472Z,32.80
2022-08-02T16:55:51.943Z,32.70
2022-08-02T17:24:18.175Z,32.40
2022-08-02T17:29:24.175Z,32.30
2022-08-02T17:46:02.454Z,32.40
2022-08-02T17:51:06.445Z,32.40
2022-08-02T17:56:57.592Z,32.30
2022-08-02T18:53:41.234Z,31.60
2022-08-02T19:15:51.645Z,31.20
2022-08-02T19:39:45.770Z,29.30
2022-08-02T19:44:49.984Z,29.60
2022-08-02T19:49:53.750Z,29.40
2022-08-02T19:55:58.518Z,29.10
2022-08-02T20:00:24.015Z,28.80
2022-08-02T20:11:25.604Z,27.70
2022-08-02T22:11:17.340Z,24.40
2022-08-02T22:16:22.479Z,24.70
2022-08-02T22:26:51.273Z,24.60
2022-08-02T22:31:54.924Z,24.60
2022-08-02T22:37:00.003Z,24.60
2022-08-02T22:42:05.790Z,24.50
2022-08-02T22:47:28.645Z,24.40
2022-08-02T22:52:42.676Z,24.40
2022-08-02T22:57:56.624Z,24.30
2022-08-02T22:59:04.668Z,24.70
2022-08-02T23:03:00.597Z,24.20
2022-08-02T23:08:04.499Z,24.10
2022-08-02T23:13:09.441Z,24.00
2022-08-02T23:18:30.971Z,23.90
2022-08-02T23:23:34.577Z,23.90
2022-08-02T23:28:39.729Z,23.80
2022-08-02T23:34:04.444Z,23.90
2022-08-02T23:39:06.989Z,23.80
2022-08-02T23:44:14.783Z,23.70
2022-08-02T23:49:19.679Z,23.70
2022-08-02T23:54:23.443Z,23.60
2022-08-02T23:59:28.526Z,23.50
